sensor_id;sensor_type;location;lat;lon;timestamp;P1;durP1;ratioP1;P2;durP2;ratioP2
2712;SDS011;1366;47.988;7.856;2023-07-20T10:24:27;43.80;;;35.00;;
2712;SDS011;1366;47.988;7.856;2023-07-20T11:57:00;50.20;;;35.60;;
2712;SDS011;1366;47.988;7.856;2023-07-20T15:11:58;53.90;;;37.80;;
2712;SDS011;1366;47.988;7.856;2023-07-20T15:16:50;53.10;;;36.00;;
2712;SDS011;1366;47.988;7.856;2023-07-20T15:21:42;56.10;;;38.80;;
2712;SDS011;1366;47.988;7.856;2023-07-20T15:43:37;56.30;;;38.10;;
2712;SDS011;1366;47.988;7.856;2023-07-20T16:00:39;49.50;;;33.20;;
2712;SDS011;1366;47.988;7.856;2023-07-20T16:15:16;56.50;;;38.80;;
2712;SDS011;1366;47.988;7.856;2023-07-20T16:25:00;57.10;;;38.80;;
2712;SDS011;1366;47.988;7.856;2023-07-20T16:27:27;51.40;;;34.30;;
2712;SDS011;1366;47.988;7.856;2023-07-20T16:39:37;56.30;;;38.20;;
2712;SDS011;1366;47.988;7.856;2023-07-20T17:06:27;55.60;;;37.30;;
2712;SDS011;1366;47.988;7.856;2023-07-20T17:13:46;50.40;;;34.00;;
2712;SDS011;1366;47.988;7.856;2023-07-20T17:16:12;55.80;;;39.30;;
2712;SDS011;1366;47.988;7.856;2023-07-20T17:21:05;43.50;;;31.50;;
2712;SDS011;1366;47.988;7.856;2023-07-20T17:40:33;48.30;;;35.30;;
2712;SDS011;1366;47.988;7.856;2023-07-20T18:04:55;39.70;;;32.40;;
2712;SDS011;1366;47.988;7.856;2023-07-20T18:07:21;38.00;;;31.20;;
2712;SDS011;1366;47.988;7.856;2023-07-20T18:09:47;39.70;;;32.00;;
2712;SDS011;1366;47.988;7.856;2023-07-20T18:12:13;38.00;;;31.50;;
2712;SDS011;1366;47.988;7.856;2023-07-20T18:17:05;38.30;;;31.00;;
2712;SDS011;1366;47.988;7.856;2023-07-20T18:19:31;39.30;;;33.15;;
2712;SDS011;1366;47.988;7.856;2023-07-20T18:21:58;38.23;;;31.30;;
2712;SDS011;1366;47.988;7.856;2023-07-20T18:24:24;37.90;;;31.63;;
2712;SDS011;1366;47.988;7.856;2023-07-20T18:26:50;38.00;;;31.80;;
2712;SDS011;1366;47.988;7.856;2023-07-20T18:29:16;38.10;;;31.90;;
2712;SDS011;1366;47.988;7.856;2023-07-20T18:31:42;38.10;;;32.00;;
2712;SDS011;1366;47.988;7.856;2023-07-20T18:34:08;41.40;;;32.70;;
2712;SDS011;1366;47.988;7.856;2023-07-20T18:36:35;38.35;;;31.50;;
2712;SDS011;1366;47.988;7.856;2023-07-20T18:41:28;39.65;;;33.55;;
2712;SDS011;1366;47.988;7.856;2023-07-20T18:48:47;37.60;;;30.50;;
2712;SDS011;1366;47.988;7.856;2023-07-20T18:56:05;34.90;;;29.80;;
2712;SDS011;1366;47.988;7.856;2023-07-20T18:58:32;35.33;;;30.23;;
2712;SDS011;1366;47.988;7.856;2023-07-20T19:00:58;35.65;;;31.10;;
2712;SDS011;1366;47.988;7.856;2023-07-20T19:03:25;36.30;;;31.20;;
2712;SDS011;1366;47.988;7.856;2023-07-20T19:08:17;36.70;;;31.60;;
2712;SDS011;1366;47.988;7.856;2023-07-20T19:10:43;38.70;;;31.20;;
2712;SDS011;1366;47.988;7.856;2023-07-20T19:13:09;36.80;;;31.70;;
2712;SDS011;1366;47.988;7.856;2023-07-20T19:15:35;38.60;;;31.00;;
2712;SDS011;1366;47.988;7.856;2023-07-20T19:18:01;37.40;;;32.10;;
2712;SDS011;1366;47.988;7.856;2023-07-20T19:20:27;38.10;;;30.60;;
2712;SDS011;1366;47.988;7.856;2023-07-20T19:22:53;39.30;;;34.80;;
2712;SDS011;1366;47.988;7.856;2023-07-20T19:25:19;37.70;;;30.00;;
2712;SDS011;1366;47.988;7.856;2023-07-20T19:27:46;36.60;;;31.30;;
2712;SDS011;1366;47.988;7.856;2023-07-20T19:30:13;39.15;;;31.85;;
2712;SDS011;1366;47.988;7.856;2023-07-20T19:32:40;37.30;;;32.05;;
2712;SDS011;1366;47.988;7.856;2023-07-20T19:35:06;38.00;;;30.60;;
2712;SDS011;1366;47.988;7.856;2023-07-20T19:37:32;37.30;;;32.05;;
2712;SDS011;1366;47.988;7.856;2023-07-20T19:39:58;38.20;;;30.90;;
2712;SDS011;1366;47.988;7.856;2023-07-20T19:42:25;36.07;;;30.83;;
2712;SDS011;1366;47.988;7.856;2023-07-20T19:44:51;37.85;;;30.35;;
2712;SDS011;1366;47.988;7.856;2023-07-20T19:47:18;36.23;;;31.87;;
2712;SDS011;1366;47.988;7.856;2023-07-20T19:52:13;34.80;;;29.93;;
2712;SDS011;1366;47.988;7.856;2023-07-20T19:54:40;35.40;;;30.80;;
2712;SDS011;1366;47.988;7.856;2023-07-20T19:57:06;37.50;;;31.10;;
2712;SDS011;1366;47.988;7.856;2023-07-20T19:59:34;34.70;;;30.00;;
2712;SDS011;1366;47.988;7.856;2023-07-20T20:02:01;35.20;;;30.65;;
2712;SDS011;1366;47.988;7.856;2023-07-20T20:04:28;37.10;;;29.70;;
2712;SDS011;1366;47.988;7.856;2023-07-20T20:06:55;38.50;;;31.95;;
2712;SDS011;1366;47.988;7.856;2023-07-20T20:09:22;35.25;;;30.30;;
2712;SDS011;1366;47.988;7.856;2023-07-20T20:11:49;36.93;;;30.00;;
2712;SDS011;1366;47.988;7.856;2023-07-20T20:14:16;35.90;;;31.35;;
2712;SDS011;1366;47.988;7.856;2023-07-20T20:16:42;36.67;;;29.85;;
2712;SDS011;1366;47.988;7.856;2023-07-20T20:19:09;34.30;;;29.50;;
2712;SDS011;1366;47.988;7.856;2023-07-20T20:27:49;37.20;;;33.00;;
2712;SDS011;1366;47.988;7.856;2023-07-20T20:30:15;36.85;;;29.90;;
2712;SDS011;1366;47.988;7.856;2023-07-20T20:32:42;38.65;;;31.70;;
2712;SDS011;1366;47.988;7.856;2023-07-20T20:35:09;35.10;;;30.40;;
2712;SDS011;1366;47.988;7.856;2023-07-20T20:37:35;37.30;;;33.20;;
2712;SDS011;1366;47.988;7.856;2023-07-20T20:40:02;36.27;;;32.27;;
2712;SDS011;1366;47.988;7.856;2023-07-20T20:42:28;36.60;;;32.40;;
2712;SDS011;1366;47.988;7.856;2023-07-20T20:44:55;35.40;;;31.33;;
2712;SDS011;1366;47.988;7.856;2023-07-20T20:47:21;35.40;;;31.10;;
2712;SDS011;1366;47.988;7.856;2023-07-20T20:49:47;36.95;;;30.58;;
2712;SDS011;1366;47.988;7.856;2023-07-20T20:52:15;35.80;;;30.50;;
2712;SDS011;1366;47.988;7.856;2023-07-20T20:54:44;35.03;;;30.60;;
2712;SDS011;1366;47.988;7.856;2023-07-20T20:57:10;35.27;;;31.03;;
2712;SDS011;1366;47.988;7.856;2023-07-20T20:59:36;34.37;;;29.93;;
2712;SDS011;1366;47.988;7.856;2023-07-20T21:02:05;35.95;;;32.00;;
2712;SDS011;1366;47.988;7.856;2023-07-20T21:04:32;35.00;;;30.60;;
2712;SDS011;1366;47.988;7.856;2023-07-20T21:06:58;38.70;;;32.00;;
2712;SDS011;1366;47.988;7.856;2023-07-20T21:09:24;36.50;;;29.90;;
2712;SDS011;1366;47.988;7.856;2023-07-20T21:11:53;37.57;;;33.43;;
2712;SDS011;1366;47.988;7.856;2023-07-20T21:14:19;34.65;;;30.15;;
2712;SDS011;1366;47.988;7.856;2023-07-20T21:16:45;36.10;;;32.10;;
2712;SDS011;1366;47.988;7.856;2023-07-20T21:19:11;37.13;;;33.10;;
2712;SDS011;1366;47.988;7.856;2023-07-20T21:21:37;36.80;;;30.60;;
2712;SDS011;1366;47.988;7.856;2023-07-20T21:24:03;37.20;;;30.10;;
2712;SDS011;1366;47.988;7.856;2023-07-20T21:26:30;36.00;;;29.30;;
2712;SDS011;1366;47.988;7.856;2023-07-20T21:28:56;37.00;;;30.20;;
2712;SDS011;1366;47.988;7.856;2023-07-20T21:31:22;35.20;;;31.40;;
2712;SDS011;1366;47.988;7.856;2023-07-20T21:33:48;32.90;;;29.30;;
2712;SDS011;1366;47.988;7.856;2023-07-20T21:36:14;32.80;;;29.20;;
2712;SDS011;1366;47.988;7.856;2023-07-20T21:38:40;33.70;;;27.60;;
2712;SDS011;1366;47.988;7.856;2023-07-20T21:41:06;31.65;;;28.15;;
2712;SDS011;1366;47.988;7.856;2023-07-20T21:43:33;30.65;;;27.30;;
2712;SDS011;1366;47.988;7.856;2023-07-20T21:45:59;30.90;;;27.55;;
2712;SDS011;1366;47.988;7.856;2023-07-20T21:50:52;32.53;;;29.03;;
2712;SDS011;1366;47.988;7.856;2023-07-20T21:53:18;33.77;;;28.40;;
2712;SDS011;1366;47.988;7.856;2023-07-20T21:55:45;36.50;;;30.20;;
2712;SDS011;1366;47.988;7.856;2023-07-20T21:58:13;31.40;;;28.00;;
2712;SDS011;1366;47.988;7.856;2023-07-20T22:00:40;33.40;;;29.70;;
2712;SDS011;1366;47.988;7.856;2023-07-20T22:03:06;36.00;;;30.80;;
2712;SDS011;1366;47.988;7.856;2023-07-20T22:05:32;34.75;;;29.35;;
2712;SDS011;1366;47.988;7.856;2023-07-20T22:07:58;35.30;;;31.60;;
2712;SDS011;1366;47.988;7.856;2023-07-20T22:10:26;35.30;;;31.60;;
2712;SDS011;1366;47.988;7.856;2023-07-20T22:12:53;35.50;;;30.60;;
2712;SDS011;1366;47.988;7.856;2023-07-20T22:15:19;35.87;;;31.10;;
2712;SDS011;1366;47.988;7.856;2023-07-20T22:17:45;35.65;;;31.95;;
2712;SDS011;1366;47.988;7.856;2023-07-20T22:20:11;35.30;;;31.60;;
2712;SDS011;1366;47.988;7.856;2023-07-20T22:22:38;36.55;;;32.65;;
2712;SDS011;1366;47.988;7.856;2023-07-20T22:25:05;35.30;;;30.43;;
2712;SDS011;1366;47.988;7.856;2023-07-20T22:27:31;36.90;;;33.10;;
2712;SDS011;1366;47.988;7.856;2023-07-20T22:29:58;35.80;;;32.10;;
2712;SDS011;1366;47.988;7.856;2023-07-20T22:32:24;34.40;;;30.80;;
2712;SDS011;1366;47.988;7.856;2023-07-20T22:34:50;35.15;;;31.45;;
2712;SDS011;1366;47.988;7.856;2023-07-20T22:37:16;34.05;;;29.60;;
2712;SDS011;1366;47.988;7.856;2023-07-20T22:39:42;36.80;;;33.00;;
2712;SDS011;1366;47.988;7.856;2023-07-20T22:42:08;34.10;;;30.50;;
2712;SDS011;1366;47.988;7.856;2023-07-20T22:44:34;36.65;;;32.85;;
2712;SDS011;1366;47.988;7.856;2023-07-20T22:47:00;35.50;;;30.40;;
2712;SDS011;1366;47.988;7.856;2023-07-20T22:49:28;33.90;;;30.40;;
2712;SDS011;1366;47.988;7.856;2023-07-20T22:51:55;33.05;;;29.55;;
2712;SDS011;1366;47.988;7.856;2023-07-20T22:54:21;34.05;;;30.50;;
2712;SDS011;1366;47.988;7.856;2023-07-20T22:56:47;35.20;;;31.60;;
2712;SDS011;1366;47.988;7.856;2023-07-20T23:01:39;35.20;;;31.20;;
2712;SDS011;1366;47.988;7.856;2023-07-20T23:04:09;32.60;;;29.20;;
2712;SDS011;1366;47.988;7.856;2023-07-20T23:06:35;32.05;;;28.70;;
2712;SDS011;1366;47.988;7.856;2023-07-20T23:09:01;34.00;;;29.60;;
2712;SDS011;1366;47.988;7.856;2023-07-20T23:11:28;31.95;;;28.65;;
2712;SDS011;1366;47.988;7.856;2023-07-20T23:13:55;34.70;;;31.10;;
2712;SDS011;1366;47.988;7.856;2023-07-20T23:16:21;33.50;;;29.80;;
2712;SDS011;1366;47.988;7.856;2023-07-20T23:18:47;35.63;;;32.03;;
2712;SDS011;1366;47.988;7.856;2023-07-20T23:21:14;34.70;;;30.90;;
2712;SDS011;1366;47.988;7.856;2023-07-20T23:23:40;34.10;;;30.60;;
2712;SDS011;1366;47.988;7.856;2023-07-20T23:26:08;35.20;;;31.30;;
2712;SDS011;1366;47.988;7.856;2023-07-20T23:28:39;33.50;;;29.45;;
2712;SDS011;1366;47.988;7.856;2023-07-20T23:31:06;33.73;;;29.77;;
2712;SDS011;1366;47.988;7.856;2023-07-20T23:33:32;35.10;;;31.00;;
2712;SDS011;1366;47.988;7.856;2023-07-20T23:35:58;33.75;;;30.25;;
2712;SDS011;1366;47.988;7.856;2023-07-20T23:38:27;32.85;;;29.45;;
2712;SDS011;1366;47.988;7.856;2023-07-20T23:40:53;32.70;;;28.85;;
2712;SDS011;1366;47.988;7.856;2023-07-20T23:43:19;35.70;;;31.60;;
2712;SDS011;1366;47.988;7.856;2023-07-20T23:45:45;33.90;;;30.40;;
2712;SDS011;1366;47.988;7.856;2023-07-20T23:48:11;34.10;;;30.40;;
2712;SDS011;1366;47.988;7.856;2023-07-20T23:50:39;35.20;;;30.50;;
2712;SDS011;1366;47.988;7.856;2023-07-20T23:53:05;35.80;;;31.60;;
2712;SDS011;1366;47.988;7.856;2023-07-20T23:55:31;34.40;;;29.90;;
2712;SDS011;1366;47.988;7.856;2023-07-20T23:57:58;35.37;;;31.77;;
